Aérodrome :
LOGIN :

S'inscrire | Disclaimer

   EN    FR    IT 

 










Légende :    VFR   VFR Marginal   IFR   IFR Intensif   IFR Très Intensif
Visi : 
Plafond : 
>= 8 km
>= 3000ft
5 à 8 km
1000 à 3000 ft
1500m à 5 km
500 à 1000 ft
800 à 1500m
200 à 500 ft
< 800m
< 200 ft
Symboles :   Orages  Brouillard  Fortes neiges  Fortes précipitations  Vent > 20 kt
SIGMETs :   Divers  Orages  Givrage  Turbulence  Onde Orograph.  Cendres Volcan.






- Altitude de l'aérodrome : 37 ft
- Code IATA : OLB


LIEO - Olbia Costa Smeralda

DERNIER METAR :
  • 182220Z 23003KT CAVOK 23/18 Q1017

METARs EXPIRÉS :
  • 182150Z 23004KT CAVOK 24/19 Q1017
  • 182120Z 24003KT 190V290 CAVOK 24/21 Q1017
  • 182050Z VRB01KT CAVOK 25/23 Q1017
  • 182020Z 04002KT CAVOK 26/24 Q1017
  • 181950Z 06003KT CAVOK 26/24 Q1017
  • 181920Z 05005KT CAVOK 27/23 Q1017
  • 181850Z 05005KT CAVOK 28/23 Q1016
  • 181820Z 04007KT CAVOK 29/23 Q1016
  • 181750Z 05005KT 030V100 CAVOK 30/22 Q1016

TAF TAF LIEO
Valide du 18 à 18h jusqu'au 19 à 18h UTC


181700Z 1818/1918 06010KT CAVOK
BECMG 1818/1820 VRB05KT
BECMG 1909/1911 05010KT
BECMG 1915/1917 26012KT



MET'MAP, la Météo Aéronautique d'un coup d'oeil ! - Copyright ORBIFLY Décembre 2007 - Disclaimer

ORBIFLY MET'MAP TEAM :

Programmation & Développement : Alexandra Zaïnal
Sur une idée originale de : Baudouin d'Aumeries
Soutien technique & logistique : Manuel Goepfert
Assistance : Marc-Olivier Méhu




SOURCES & CREDITS :

   NOAA